Time;durP1;ratioP1;P1;durP2;ratioP2;P2;SDS_P1;SDS_P2;PMS_P1;PMS_P2;Temp;Humidity;BMP_temperature;BMP_pressure;BME280_temperature;BME280_humidity;BME280_pressure;Samples;Min_cycle;Max_cycle;Signal;HPM_P1;HPM_P2
2022/03/31 00:01:24;;;;;;;15.80;5.37;;;;;;;;;;10512073;28;20056;-71
2022/03/31 00:06:24;;;;;;;15.02;6.55;;;;;;;;;;10530213;28;20040;-71
2022/03/31 00:11:24;;;;;;;19.97;4.17;;;;;;;;;;10530894;28;20039;-74
2022/03/31 00:16:25;;;;;;;14.95;6.20;;;;;;;;;;10511111;28;20494;-73
2022/03/31 00:21:26;;;;;;;15.40;6.18;;;;;;;;;;10503182;28;20074;-71
2022/03/31 00:26:26;;;;;;;27.10;7.53;;;;;;;;;;10489405;28;20401;-71
2022/03/31 00:31:26;;;;;;;16.23;6.80;;;;;;;;;;10487890;28;20059;-71
2022/03/31 00:36:26;;;;;;;23.25;5.15;;;;;;;;;;10488068;28;20044;-70
2022/03/31 00:41:27;;;;;;;13.63;4.25;;;;;;;;;;10470761;28;20021;-74
2022/03/31 00:46:27;;;;;;;15.83;5.00;;;;;;;;;;10469392;28;20066;-71
2022/03/31 00:51:28;;;;;;;10.75;4.63;;;;;;;;;;10469982;28;20024;-74
2022/03/31 00:56:28;;;;;;;19.05;4.07;;;;;;;;;;10469113;28;20024;-71
2022/03/31 01:01:29;;;;;;;19.83;3.85;;;;;;;;;;10488168;28;20403;-72
2022/03/31 01:06:29;;;;;;;10.63;4.00;;;;;;;;;;10468075;28;20090;-73
2022/03/31 01:11:30;;;;;;;21.17;5.88;;;;;;;;;;10468436;28;20108;-71
2022/03/31 01:16:30;;;;;;;15.10;4.70;;;;;;;;;;10469409;28;20032;-73
2022/03/31 01:21:35;;;;;;;25.23;4.85;;;;;;;;;;10477599;28;20016;-77
2022/03/31 01:26:37;;;;;;;15.02;4.75;;;;;;;;;;10511395;28;20020;-71
2022/03/31 01:31:38;;;;;;;16.17;5.07;;;;;;;;;;10498316;28;20036;-74
2022/03/31 01:36:38;;;;;;;18.30;5.35;;;;;;;;;;10469939;28;20032;-74
2022/03/31 01:41:39;;;;;;;26.63;5.17;;;;;;;;;;10469673;28;20588;-71
2022/03/31 01:46:39;;;;;;;16.05;4.15;;;;;;;;;;10487517;28;20028;-71
2022/03/31 01:51:39;;;;;;;17.67;4.40;;;;;;;;;;10469784;28;20482;-72
2022/03/31 01:56:43;;;;;;;19.87;5.77;;;;;;;;;;10469154;28;20028;-75
2022/03/31 02:01:43;;;;;;;20.70;5.22;;;;;;;;;;10487384;28;20044;-75
2022/03/31 02:06:43;;;;;;;16.92;4.03;;;;;;;;;;10469423;28;20497;-72
2022/03/31 02:11:45;;;;;;;18.52;4.30;;;;;;;;;;10469588;28;20460;-72
2022/03/31 02:16:46;;;;;;;24.88;3.63;;;;;;;;;;10470099;28;20025;-72
2022/03/31 02:21:46;;;;;;;20.33;5.47;;;;;;;;;;10498516;28;20024;-75
2022/03/31 02:26:48;;;;;;;20.10;4.63;;;;;;;;;;10486402;28;20013;-77
2022/03/31 02:31:48;;;;;;;13.77;4.72;;;;;;;;;;10489762;28;20082;-74
2022/03/31 02:36:48;;;;;;;12.30;3.65;;;;;;;;;;10477266;28;20016;-72
2022/03/31 02:41:48;;;;;;;23.75;4.03;;;;;;;;;;10460010;28;20425;-72
2022/03/31 02:46:49;;;;;;;16.47;4.47;;;;;;;;;;10477426;28;20110;-72
2022/03/31 02:51:49;;;;;;;12.02;3.70;;;;;;;;;;10476342;28;20013;-72
2022/03/31 02:56:49;;;;;;;18.27;4.47;;;;;;;;;;10494294;28;20044;-71
2022/03/31 03:01:50;;;;;;;20.35;4.40;;;;;;;;;;10474680;28;20205;-76
2022/03/31 03:06:51;;;;;;;34.15;5.53;;;;;;;;;;10474773;28;20020;-74
2022/03/31 03:11:51;;;;;;;14.03;4.73;;;;;;;;;;10474441;28;20048;-71
2022/03/31 03:16:51;;;;;;;21.83;6.23;;;;;;;;;;10492402;28;20019;-78
2022/03/31 03:21:52;;;;;;;27.47;5.93;;;;;;;;;;10474213;28;20406;-72
2022/03/31 03:26:52;;;;;;;17.50;5.78;;;;;;;;;;10474553;28;20533;-72
2022/03/31 03:31:52;;;;;;;16.80;5.90;;;;;;;;;;10491297;28;20411;-75
2022/03/31 03:36:53;;;;;;;16.77;4.70;;;;;;;;;;10473406;28;20016;-73
2022/03/31 03:41:53;;;;;;;17.60;6.37;;;;;;;;;;10473774;28;20021;-75
2022/03/31 03:46:53;;;;;;;15.98;5.80;;;;;;;;;;10472824;28;20399;-71
2022/03/31 03:51:54;;;;;;;13.55;5.93;;;;;;;;;;10472460;28;20028;-70
2022/03/31 03:56:54;;;;;;;15.73;5.17;;;;;;;;;;10472253;28;20078;-75
2022/03/31 04:01:54;;;;;;;14.45;5.70;;;;;;;;;;10472164;28;20051;-72
2022/03/31 04:06:58;;;;;;;14.82;4.97;;;;;;;;;;10488686;28;20032;-76
2022/03/31 04:11:58;;;;;;;15.15;6.75;;;;;;;;;;10471791;28;20026;-71
2022/03/31 04:16:59;;;;;;;18.60;5.63;;;;;;;;;;10489448;28;20031;-73
2022/03/31 04:21:59;;;;;;;14.07;6.10;;;;;;;;;;10471640;28;20021;-76
2022/03/31 04:26:59;;;;;;;20.43;6.20;;;;;;;;;;10471277;28;20026;-74
2022/03/31 04:32:00;;;;;;;15.87;6.60;;;;;;;;;;10485714;28;20085;-72
2022/03/31 04:37:00;;;;;;;13.77;5.80;;;;;;;;;;10511750;28;20075;-71
2022/03/31 04:42:02;;;;;;;24.15;6.45;;;;;;;;;;10473541;28;20021;-71
2022/03/31 04:47:03;;;;;;;21.13;6.30;;;;;;;;;;10488522;28;20068;-72
2022/03/31 04:52:04;;;;;;;14.95;6.70;;;;;;;;;;10485858;28;20139;-74
2022/03/31 04:57:04;;;;;;;22.83;7.55;;;;;;;;;;10511626;28;20137;-76
2022/03/31 05:02:05;;;;;;;15.35;5.88;;;;;;;;;;10496359;28;20554;-71
2022/03/31 05:07:05;;;;;;;36.05;7.70;;;;;;;;;;10487342;28;20029;-72
2022/03/31 05:12:06;;;;;;;19.88;6.55;;;;;;;;;;10469606;28;20032;-74
2022/03/31 05:17:06;;;;;;;21.40;6.40;;;;;;;;;;10468861;28;20081;-73
2022/03/31 05:22:07;;;;;;;19.83;6.05;;;;;;;;;;10492935;28;20411;-72
2022/03/31 05:27:07;;;;;;;25.83;7.60;;;;;;;;;;10497961;28;20020;-72
2022/03/31 05:32:08;;;;;;;22.15;6.95;;;;;;;;;;10468040;28;20024;-74
2022/03/31 05:37:08;;;;;;;20.88;7.55;;;;;;;;;;10469217;28;20055;-71
2022/03/31 05:42:08;;;;;;;30.23;6.80;;;;;;;;;;10451970;28;20384;-71
2022/03/31 05:47:09;;;;;;;22.23;5.90;;;;;;;;;;10486900;28;20443;-75
2022/03/31 05:52:09;;;;;;;35.00;4.63;;;;;;;;;;10469650;28;20336;-74
2022/03/31 05:57:09;;;;;;;36.15;6.45;;;;;;;;;;10494867;28;20509;-75
2022/03/31 06:02:11;;;;;;;23.30;4.60;;;;;;;;;;10475962;28;20426;-73
2022/03/31 06:07:11;;;;;;;21.77;4.53;;;;;;;;;;10476597;28;20036;-73
2022/03/31 06:12:11;;;;;;;30.92;4.47;;;;;;;;;;10476549;28;20020;-72
2022/03/31 06:17:12;;;;;;;24.13;6.90;;;;;;;;;;10476499;28;20453;-71
2022/03/31 06:22:12;;;;;;;26.50;6.55;;;;;;;;;;10475827;28;20316;-74
2022/03/31 06:27:13;;;;;;;30.75;5.05;;;;;;;;;;10458852;28;20028;-72
2022/03/31 06:32:13;;;;;;;33.13;6.28;;;;;;;;;;10475389;28;20406;-77
2022/03/31 06:37:14;;;;;;;32.67;6.18;;;;;;;;;;10493036;28;20025;-78
2022/03/31 06:42:14;;;;;;;28.67;4.97;;;;;;;;;;10492982;28;20100;-72
2022/03/31 06:47:14;;;;;;;26.80;5.63;;;;;;;;;;10475006;28;20513;-73
2022/03/31 06:52:15;;;;;;;34.95;5.82;;;;;;;;;;10493017;28;20398;-72
2022/03/31 06:57:15;;;;;;;21.70;5.30;;;;;;;;;;10492687;28;20128;-72
2022/03/31 07:02:16;;;;;;;22.17;6.22;;;;;;;;;;10474475;28;20051;-72
2022/03/31 07:07:16;;;;;;;31.85;6.53;;;;;;;;;;10473573;28;20124;-73
2022/03/31 07:12:16;;;;;;;17.47;5.60;;;;;;;;;;10491963;28;20020;-73
2022/03/31 07:17:17;;;;;;;19.13;6.40;;;;;;;;;;10473568;28;20074;-74
2022/03/31 07:22:18;;;;;;;35.65;6.80;;;;;;;;;;10473520;28;20028;-73
2022/03/31 07:27:19;;;;;;;19.40;6.68;;;;;;;;;;10473414;28;20025;-74
2022/03/31 07:32:19;;;;;;;27.10;7.45;;;;;;;;;;10490830;28;20017;-72
2022/03/31 07:37:20;;;;;;;31.77;6.33;;;;;;;;;;10472932;28;20020;-74
2022/03/31 07:42:20;;;;;;;19.35;4.35;;;;;;;;;;10472307;28;20028;-72
2022/03/31 07:47:20;;;;;;;32.78;7.30;;;;;;;;;;10472510;28;20025;-71
2022/03/31 07:52:21;;;;;;;24.75;5.03;;;;;;;;;;10455829;28;20397;-74
2022/03/31 07:57:22;;;;;;;17.02;4.45;;;;;;;;;;10488912;28;20483;-70
2022/03/31 08:02:24;;;;;;;16.47;4.67;;;;;;;;;;10471378;28;20106;-72
2022/03/31 08:07:24;;;;;;;21.33;5.15;;;;;;;;;;10471844;28;20094;-76
2022/03/31 08:12:25;;;;;;;23.70;4.70;;;;;;;;;;10471557;28;20082;-71
2022/03/31 08:17:25;;;;;;;18.35;4.43;;;;;;;;;;10470439;28;20016;-71
2022/03/31 08:22:26;;;;;;;22.40;4.57;;;;;;;;;;10471156;28;20113;-72
2022/03/31 08:27:26;;;;;;;22.60;4.43;;;;;;;;;;10470890;28;20494;-73
2022/03/31 08:32:27;;;;;;;22.15;3.97;;;;;;;;;;10470622;28;20533;-73
2022/03/31 08:37:27;;;;;;;21.05;4.47;;;;;;;;;;10488463;28;20015;-72
2022/03/31 08:42:28;;;;;;;19.17;4.88;;;;;;;;;;10470323;28;20113;-71
2022/03/31 08:47:28;;;;;;;18.37;3.17;;;;;;;;;;10453550;28;20028;-70
2022/03/31 08:52:28;;;;;;;18.08;4.65;;;;;;;;;;10470487;28;20020;-76
2022/03/31 08:57:39;;;;;;;27.88;7.07;;;;;;;;;;10470312;28;20402;-79
2022/03/31 09:02:39;;;;;;;22.15;4.65;;;;;;;;;;10469797;28;20131;-76
2022/03/31 09:07:53;;;;;;;25.25;4.95;;;;;;;;;;10478722;28;20448;-75
2022/03/31 09:12:53;;;;;;;24.45;4.72;;;;;;;;;;10511262;28;20028;-75
2022/03/31 09:17:55;;;;;;;24.47;5.77;;;;;;;;;;10511264;28;20032;-75
2022/03/31 09:22:55;;;;;;;15.95;4.13;;;;;;;;;;10483990;28;20051;-77
2022/03/31 09:27:56;;;;;;;23.05;4.03;;;;;;;;;;10455485;28;20028;-76
2022/03/31 09:32:56;;;;;;;25.87;4.97;;;;;;;;;;10495904;28;20387;-75
2022/03/31 09:37:58;;;;;;;15.53;3.50;;;;;;;;;;10495313;28;20499;-77
2022/03/31 09:42:59;;;;;;;29.25;3.40;;;;;;;;;;10495338;28;20402;-75
2022/03/31 09:48:01;;;;;;;22.35;4.55;;;;;;;;;;10505761;28;20028;-78
2022/03/31 09:53:02;;;;;;;25.77;3.72;;;;;;;;;;10518396;28;20032;-79
2022/03/31 09:58:03;;;;;;;20.85;3.17;;;;;;;;;;10518316;28;20023;-75
2022/03/31 10:03:04;;;;;;;15.98;5.43;;;;;;;;;;10518058;28;20479;-76
2022/03/31 10:08:05;;;;;;;18.77;3.00;;;;;;;;;;10517778;28;20617;-75
2022/03/31 10:13:20;;;;;;;16.00;4.05;;;;;;;;;;10517391;28;20133;-75
2022/03/31 10:18:21;;;;;;;24.00;5.70;;;;;;;;;;10499713;28;20020;-71
2022/03/31 10:28:40;;;;;;;25.50;3.60;;;;;;;;;;10492979;28;20146;-71
2022/03/31 10:33:42;;;;;;;16.83;4.40;;;;;;;;;;10512142;28;20118;-71
2022/03/31 10:38:53;;;;;;;17.17;3.67;;;;;;;;;;10515779;28;20024;-73
2022/03/31 10:43:56;;;;;;;28.75;4.07;;;;;;;;;;10495437;28;20391;-73
2022/03/31 10:49:00;;;;;;;23.90;4.25;;;;;;;;;;10474512;28;20025;-72
2022/03/31 10:54:00;;;;;;;25.65;5.28;;;;;;;;;;10474499;28;20031;-72
2022/03/31 10:59:02;;;;;;;27.48;5.60;;;;;;;;;;10474493;28;20044;-71
2022/03/31 11:04:08;;;;;;;21.23;3.92;;;;;;;;;;10474197;28;20502;-75
2022/03/31 11:09:18;;;;;;;14.68;4.15;;;;;;;;;;10474286;28;20037;-72
2022/03/31 11:14:18;;;;;;;31.52;4.07;;;;;;;;;;10474124;28;20040;-73
2022/03/31 11:19:22;;;;;;;19.33;3.97;;;;;;;;;;10491691;28;20031;-72
2022/03/31 11:24:23;;;;;;;25.65;3.50;;;;;;;;;;10473864;28;20025;-72
2022/03/31 11:29:26;;;;;;;22.38;3.22;;;;;;;;;;10473596;28;20032;-71
2022/03/31 11:34:30;;;;;;;16.85;2.33;;;;;;;;;;10472464;28;20134;-73
2022/03/31 11:39:31;;;;;;;19.05;3.20;;;;;;;;;;10490874;28;20021;-71
2022/03/31 11:44:39;;;;;;;22.83;2.93;;;;;;;;;;10472606;28;20602;-71
2022/03/31 11:49:42;;;;;;;14.68;3.58;;;;;;;;;;10472196;28;20029;-76
2022/03/31 11:54:42;;;;;;;18.88;2.60;;;;;;;;;;10488908;28;20082;-72
2022/03/31 11:59:42;;;;;;;19.77;2.93;;;;;;;;;;10471525;28;20567;-72
2022/03/31 12:04:47;;;;;;;11.05;3.03;;;;;;;;;;10455246;28;20173;-71
2022/03/31 12:09:48;;;;;;;11.50;2.05;;;;;;;;;;10489260;28;20060;-72
2022/03/31 12:14:53;;;;;;;15.38;2.83;;;;;;;;;;10489766;28;20028;-74
2022/03/31 12:19:53;;;;;;;10.23;2.35;;;;;;;;;;10471438;28;20020;-76
2022/03/31 12:24:53;;;;;;;26.15;3.78;;;;;;;;;;10454636;28;20413;-74
2022/03/31 12:29:58;;;;;;;13.40;3.67;;;;;;;;;;10490608;28;20410;-75
2022/03/31 12:34:59;;;;;;;9.45;2.63;;;;;;;;;;10472040;28;20116;-73
2022/03/31 12:40:03;;;;;;;21.10;3.15;;;;;;;;;;10471300;28;20107;-71
2022/03/31 12:45:10;;;;;;;24.23;3.33;;;;;;;;;;10492228;28;20021;-72
2022/03/31 12:50:15;;;;;;;19.30;3.55;;;;;;;;;;10471258;28;20039;-77
2022/03/31 12:55:15;;;;;;;16.90;3.50;;;;;;;;;;10470492;28;20033;-73
2022/03/31 13:00:18;;;;;;;13.18;2.60;;;;;;;;;;10510314;28;20116;-71
2022/03/31 13:05:19;;;;;;;19.25;3.53;;;;;;;;;;10511245;28;20582;-72
2022/03/31 13:10:24;;;;;;;18.17;3.38;;;;;;;;;;10507297;28;20638;-70
2022/03/31 13:15:24;;;;;;;19.77;3.25;;;;;;;;;;10488995;28;20024;-73
2022/03/31 13:20:24;;;;;;;24.75;3.30;;;;;;;;;;10529361;28;20025;-73
2022/03/31 13:25:25;;;;;;;14.33;2.40;;;;;;;;;;10511648;28;20028;-71
2022/03/31 13:30:25;;;;;;;20.20;3.65;;;;;;;;;;10515684;28;20127;-72
2022/03/31 13:35:26;;;;;;;27.48;4.22;;;;;;;;;;10468951;28;20024;-72
2022/03/31 13:40:27;;;;;;;31.88;5.40;;;;;;;;;;10469101;28;20398;-71
2022/03/31 13:45:27;;;;;;;27.45;5.22;;;;;;;;;;10468731;28;20035;-70
2022/03/31 13:50:27;;;;;;;15.77;3.75;;;;;;;;;;10485847;28;20046;-76
2022/03/31 13:55:28;;;;;;;27.10;4.97;;;;;;;;;;10486701;28;20044;-74
2022/03/31 14:05:51;;;;;;;35.63;5.47;;;;;;;;;;10486733;28;20414;-71
2022/03/31 14:10:51;;;;;;;45.13;5.35;;;;;;;;;;10468255;28;20025;-73
2022/03/31 14:15:51;;;;;;;38.37;4.93;;;;;;;;;;10472839;28;20501;-71
2022/03/31 14:20:51;;;;;;;40.80;5.45;;;;;;;;;;10498325;28;20027;-71
2022/03/31 14:25:58;;;;;;;36.97;5.53;;;;;;;;;;10464499;28;20111;-73
2022/03/31 14:30:58;;;;;;;36.38;5.68;;;;;;;;;;10509377;28;20028;-73
2022/03/31 14:36:00;;;;;;;31.43;3.47;;;;;;;;;;10516458;28;20085;-72
2022/03/31 14:41:09;;;;;;;31.90;6.05;;;;;;;;;;10516427;28;20031;-71
2022/03/31 14:46:11;;;;;;;33.58;5.68;;;;;;;;;;10515963;28;20533;-74
2022/03/31 14:51:11;;;;;;;35.92;5.65;;;;;;;;;;10465708;28;20021;-73
2022/03/31 14:56:12;;;;;;;38.83;6.15;;;;;;;;;;10491700;28;20143;-74
2022/03/31 15:01:13;;;;;;;35.45;4.82;;;;;;;;;;10473533;28;20194;-72
2022/03/31 15:06:14;;;;;;;41.80;5.20;;;;;;;;;;10491007;28;20328;-71
2022/03/31 15:16:34;;;;;;;32.80;4.60;;;;;;;;;;10483479;28;20023;-73
2022/03/31 15:21:34;;;;;;;41.30;5.70;;;;;;;;;;10514765;28;20397;-72
2022/03/31 15:26:34;;;;;;;31.13;4.25;;;;;;;;;;10514952;28;20024;-73
2022/03/31 15:31:40;;;;;;;26.10;4.40;;;;;;;;;;10504723;28;20077;-73
2022/03/31 15:36:41;;;;;;;17.23;3.30;;;;;;;;;;10514332;28;20020;-73
2022/03/31 15:41:41;;;;;;;27.80;4.72;;;;;;;;;;10532321;28;20020;-72
2022/03/31 15:46:41;;;;;;;22.15;4.32;;;;;;;;;;10514019;28;20110;-71
2022/03/31 15:51:41;;;;;;;52.83;4.97;;;;;;;;;;10530466;28;20365;-72
2022/03/31 15:56:45;;;;;;;33.97;4.70;;;;;;;;;;10543894;23;20060;-71
2022/03/31 16:01:45;;;;;;;33.58;4.30;;;;;;;;;;10471314;28;20102;-73
2022/03/31 16:06:45;;;;;;;36.53;4.10;;;;;;;;;;10472148;28;20051;-71
2022/03/31 16:11:46;;;;;;;37.17;7.28;;;;;;;;;;10489778;28;20043;-72
2022/03/31 16:16:46;;;;;;;31.87;5.53;;;;;;;;;;10471018;28;20521;-73
2022/03/31 16:21:47;;;;;;;34.47;5.68;;;;;;;;;;10470645;28;20263;-72
2022/03/31 16:26:47;;;;;;;36.33;4.95;;;;;;;;;;10450551;28;20029;-72
2022/03/31 16:31:47;;;;;;;30.17;5.23;;;;;;;;;;10474103;28;20094;-74
2022/03/31 16:36:48;;;;;;;37.57;4.90;;;;;;;;;;10469500;28;20026;-73
2022/03/31 16:41:48;;;;;;;32.53;3.75;;;;;;;;;;10469770;28;20020;-72
2022/03/31 16:46:49;;;;;;;24.35;4.45;;;;;;;;;;10470207;28;20379;-75
2022/03/31 16:51:50;;;;;;;40.08;6.22;;;;;;;;;;10489235;28;20028;-71
2022/03/31 16:56:51;;;;;;;24.52;5.43;;;;;;;;;;10493553;28;20082;-72
2022/03/31 17:01:56;;;;;;;32.50;4.93;;;;;;;;;;10486970;28;20030;-76
2022/03/31 17:06:57;;;;;;;31.95;5.10;;;;;;;;;;10506687;28;20024;-74
2022/03/31 17:11:57;;;;;;;20.87;3.93;;;;;;;;;;10506801;28;20554;-72
2022/03/31 17:16:58;;;;;;;28.13;5.17;;;;;;;;;;10508552;28;20028;-74
2022/03/31 17:21:59;;;;;;;21.45;4.85;;;;;;;;;;10524290;28;20502;-69
2022/03/31 17:27:01;;;;;;;27.08;3.80;;;;;;;;;;10511775;28;20036;-74
2022/03/31 17:32:03;;;;;;;26.83;4.43;;;;;;;;;;10484605;28;20108;-72
2022/03/31 17:37:03;;;;;;;19.05;4.00;;;;;;;;;;10468302;28;20059;-73
2022/03/31 17:42:04;;;;;;;19.60;3.97;;;;;;;;;;10467501;28;20023;-74
2022/03/31 17:47:05;;;;;;;17.42;3.63;;;;;;;;;;10467420;28;20363;-74
2022/03/31 17:52:06;;;;;;;16.20;3.33;;;;;;;;;;10506949;28;20093;-75
2022/03/31 17:57:06;;;;;;;19.67;4.20;;;;;;;;;;10514814;28;20056;-73
2022/03/31 18:02:08;;;;;;;24.70;4.80;;;;;;;;;;10517874;28;20024;-77
2022/03/31 18:07:09;;;;;;;27.27;5.38;;;;;;;;;;10513015;28;20028;-72
2022/03/31 18:12:09;;;;;;;26.13;5.25;;;;;;;;;;10514586;28;20048;-73
2022/03/31 18:17:10;;;;;;;28.00;4.30;;;;;;;;;;10512597;28;20035;-74
2022/03/31 18:22:13;;;;;;;30.70;5.43;;;;;;;;;;10527725;28;20024;-71
2022/03/31 18:27:14;;;;;;;26.33;4.15;;;;;;;;;;10513352;28;20277;-76
2022/03/31 18:37:32;;;;;;;;;;;;;;;;;;10530434;28;20033;-76
2022/03/31 18:42:33;;;;;;;23.35;4.80;;;;;;;;;;10514403;28;19916;-74
2022/03/31 18:47:35;;;;;;;15.23;3.08;;;;;;;;;;10512977;28;20036;-75
2022/03/31 18:52:38;;;;;;;15.88;3.08;;;;;;;;;;10509734;28;20043;-71
2022/03/31 18:57:38;;;;;;;19.70;3.35;;;;;;;;;;10511504;28;20044;-70
2022/03/31 19:02:39;;;;;;;17.85;2.50;;;;;;;;;;10478268;28;20028;-70
2022/03/31 19:07:39;;;;;;;15.90;2.90;;;;;;;;;;10532797;28;20058;-71
2022/03/31 19:12:39;;;;;;;12.40;3.22;;;;;;;;;;10483424;28;20617;-70
2022/03/31 19:17:43;;;;;;;16.65;2.05;;;;;;;;;;10480985;28;20035;-74
2022/03/31 19:22:45;;;;;;;16.63;2.35;;;;;;;;;;10513384;28;20452;-75
2022/03/31 19:27:45;;;;;;;17.08;2.85;;;;;;;;;;10513896;28;20020;-73
2022/03/31 19:32:45;;;;;;;25.58;3.00;;;;;;;;;;10483695;28;20465;-71
2022/03/31 19:37:45;;;;;;;11.93;2.60;;;;;;;;;;10470602;28;20039;-73
2022/03/31 19:42:46;;;;;;;16.60;3.17;;;;;;;;;;10488755;28;20115;-75
2022/03/31 19:47:48;;;;;;;27.92;3.85;;;;;;;;;;10492006;28;20032;-73
2022/03/31 19:52:49;;;;;;;19.83;3.80;;;;;;;;;;10530039;28;20504;-76
2022/03/31 19:57:50;;;;;;;32.72;6.07;;;;;;;;;;10507579;28;20114;-72
2022/03/31 20:02:56;;;;;;;37.28;6.15;;;;;;;;;;10487922;28;20048;-72
2022/03/31 20:07:59;;;;;;;20.95;4.95;;;;;;;;;;10470636;28;20417;-71
2022/03/31 20:13:04;;;;;;;21.52;3.58;;;;;;;;;;10491613;28;20028;-74
2022/03/31 20:18:04;;;;;;;26.25;4.07;;;;;;;;;;10470820;28;20040;-69
2022/03/31 20:23:04;;;;;;;19.43;3.33;;;;;;;;;;10475743;28;20043;-71
2022/03/31 20:28:05;;;;;;;17.67;3.53;;;;;;;;;;10497326;28;20021;-72
2022/03/31 20:33:06;;;;;;;9.73;2.00;;;;;;;;;;10455940;28;20105;-72
2022/03/31 20:38:06;;;;;;;12.77;2.72;;;;;;;;;;10488948;28;20886;-72
2022/03/31 20:43:08;;;;;;;12.27;2.30;;;;;;;;;;10470688;28;20029;-71
2022/03/31 20:48:10;;;;;;;12.95;2.15;;;;;;;;;;10454448;28;20478;-71
2022/03/31 20:53:11;;;;;;;9.43;2.55;;;;;;;;;;10510961;28;20027;-71
2022/03/31 20:58:11;;;;;;;7.47;2.05;;;;;;;;;;10486646;28;20049;-77
2022/03/31 21:03:13;;;;;;;7.25;1.80;;;;;;;;;;10470291;28;20024;-74
2022/03/31 21:08:13;;;;;;;12.35;2.30;;;;;;;;;;10470338;28;20446;-75
2022/03/31 21:13:14;;;;;;;13.23;2.47;;;;;;;;;;10470117;28;20082;-72
2022/03/31 21:18:14;;;;;;;14.43;2.83;;;;;;;;;;10470365;28;20044;-72
2022/03/31 21:23:14;;;;;;;27.90;4.65;;;;;;;;;;10471048;28;20461;-70
2022/03/31 21:28:15;;;;;;;17.58;4.72;;;;;;;;;;10496645;28;20116;-71
2022/03/31 21:33:15;;;;;;;19.17;3.33;;;;;;;;;;10478166;28;20028;-77
2022/03/31 21:38:15;;;;;;;13.88;3.13;;;;;;;;;;10477724;28;20031;-72
2022/03/31 21:43:17;;;;;;;16.77;5.00;;;;;;;;;;10478270;28;20118;-71
2022/03/31 21:48:18;;;;;;;12.38;2.30;;;;;;;;;;10477753;28;20033;-74
2022/03/31 21:53:18;;;;;;;9.73;2.57;;;;;;;;;;10477327;28;20050;-72
2022/03/31 21:58:18;;;;;;;7.30;2.10;;;;;;;;;;10482466;28;20075;-76
2022/03/31 22:03:18;;;;;;;10.35;2.25;;;;;;;;;;10493701;28;20111;-72
2022/03/31 22:13:38;;;;;;;11.93;2.53;;;;;;;;;;10494363;28;20638;-73
2022/03/31 22:18:38;;;;;;;5.82;1.95;;;;;;;;;;10476784;28;20054;-70
2022/03/31 22:23:40;;;;;;;21.17;3.15;;;;;;;;;;10493032;28;20468;-72
2022/03/31 22:28:41;;;;;;;16.92;2.95;;;;;;;;;;10493922;28;20024;-72
2022/03/31 22:33:41;;;;;;;19.90;2.40;;;;;;;;;;10492573;28;20047;-73
2022/03/31 22:38:41;;;;;;;10.60;2.67;;;;;;;;;;10492496;28;20036;-73
2022/03/31 22:43:42;;;;;;;19.40;3.83;;;;;;;;;;10493408;28;20270;-69
2022/03/31 22:48:43;;;;;;;14.43;2.92;;;;;;;;;;10492163;28;20025;-70
2022/03/31 22:53:45;;;;;;;24.13;4.35;;;;;;;;;;10475309;28;20035;-73
2022/03/31 22:58:45;;;;;;;17.55;4.10;;;;;;;;;;10458282;28;20139;-73
2022/03/31 23:03:46;;;;;;;26.52;3.70;;;;;;;;;;10474808;28;20399;-69
2022/03/31 23:08:47;;;;;;;37.38;3.75;;;;;;;;;;10458055;28;20444;-75
2022/03/31 23:13:49;;;;;;;36.00;5.43;;;;;;;;;;10492421;28;20513;-74
2022/03/31 23:18:50;;;;;;;31.45;4.20;;;;;;;;;;10474467;28;20024;-71
2022/03/31 23:23:50;;;;;;;32.43;5.70;;;;;;;;;;10474056;28;20024;-73
2022/03/31 23:28:50;;;;;;;35.17;4.63;;;;;;;;;;10473615;28;20470;-70
2022/03/31 23:33:51;;;;;;;33.25;5.72;;;;;;;;;;10473658;28;20020;-74
2022/03/31 23:38:52;;;;;;;36.55;5.05;;;;;;;;;;10473754;28;20029;-71
2022/03/31 23:43:52;;;;;;;36.63;5.55;;;;;;;;;;10473019;28;20036;-70
2022/03/31 23:48:52;;;;;;;35.33;5.22;;;;;;;;;;10472963;28;20471;-71
2022/03/31 23:53:53;;;;;;;29.98;4.95;;;;;;;;;;10472758;28;20036;-75
2022/03/31 23:58:53;;;;;;;31.48;5.10;;;;;;;;;;10472808;28;20056;-74
